Time;durP1;ratioP1;P1;durP2;ratioP2;P2;SDS_P1;SDS_P2;PMS_P1;PMS_P2;Temp;Humidity;BMP_temperature;BMP_pressure;BME280_temperature;BME280_humidity;BME280_pressure;Samples;Min_cycle;Max_cycle;Signal;HPM_P1;HPM_P2
2022/04/21 00:01:37;;;;;;;2.92;2.42;;;;;;;9.52;nan;100067.13;5026351;28;20045;-72
2022/04/21 00:04:02;;;;;;;4.53;3.40;;;;;;;9.38;nan;100059.78;5025523;28;20044;-72
2022/04/21 00:06:28;;;;;;;5.35;3.67;;;;;;;9.33;nan;100068.16;5026178;28;20482;-72
2022/04/21 00:08:54;;;;;;;4.15;3.40;;;;;;;9.31;nan;100072.75;5030738;28;20033;-72
2022/04/21 00:11:19;;;;;;;4.65;3.30;;;;;;;9.27;nan;100073.22;5030908;28;20033;-72
2022/04/21 00:13:44;;;;;;;3.88;3.00;;;;;;;9.21;nan;100061.50;5030054;28;20394;-72
2022/04/21 00:16:10;;;;;;;3.25;2.47;;;;;;;9.14;nan;100065.72;5031112;28;20482;-72
2022/04/21 00:18:35;;;;;;;4.55;3.00;;;;;;;9.04;nan;100057.91;5032392;28;20060;-72
2022/04/21 00:21:02;;;;;;;4.80;3.70;;;;;;;8.94;nan;100065.09;5031857;28;20053;-72
2022/04/21 00:23:27;;;;;;;4.57;3.40;;;;;;;8.92;nan;100053.84;5032139;28;20041;-72
2022/04/21 00:25:58;;;;;;;5.50;3.70;;;;;;;8.93;nan;100055.50;5014253;28;20099;-72
2022/04/21 00:28:25;;;;;;;5.25;3.15;;;;;;;8.88;nan;100061.22;5013194;28;20456;-70
2022/04/21 00:30:50;;;;;;;4.30;3.22;;;;;;;8.83;nan;100063.50;5030933;28;20040;-70
2022/04/21 00:33:16;;;;;;;5.90;3.53;;;;;;;8.75;nan;100065.22;5010419;28;20037;-70
2022/04/21 00:35:42;;;;;;;4.63;3.50;;;;;;;8.73;nan;100062.75;4996434;28;20525;-70
2022/04/21 00:38:08;;;;;;;5.25;3.42;;;;;;;8.76;nan;100074.81;4994622;28;20050;-70
2022/04/21 00:40:33;;;;;;;4.85;3.17;;;;;;;8.75;nan;100062.59;5012561;28;20042;-70
2022/04/21 00:42:59;;;;;;;4.25;2.95;;;;;;;8.68;nan;100063.22;5010434;28;20053;-70
2022/04/21 00:45:26;;;;;;;4.20;2.90;;;;;;;8.62;nan;100061.16;5012757;28;20030;-70
2022/04/21 00:47:53;;;;;;;3.70;2.70;;;;;;;8.58;nan;100065.09;5013812;28;20434;-70
2022/04/21 00:50:25;;;;;;;4.38;3.00;;;;;;;8.55;nan;100059.28;5013470;28;20030;-70
2022/04/21 00:52:52;;;;;;;4.75;3.33;;;;;;;8.55;nan;100057.47;5012422;28;20034;-70
2022/04/21 00:55:19;;;;;;;4.30;2.90;;;;;;;8.52;nan;100056.97;5016033;28;20038;-71
2022/04/21 00:57:46;;;;;;;4.10;3.08;;;;;;;8.47;nan;100055.59;5009642;28;20058;-70
2022/04/21 01:00:13;;;;;;;5.35;3.45;;;;;;;8.42;nan;100063.13;5009909;28;20105;-70
2022/04/21 01:05:34;;;;;;;5.28;3.20;;;;;;;8.41;nan;100060.63;4998350;28;20099;-70
2022/04/21 01:08:05;;;;;;;4.15;3.03;;;;;;;8.36;nan;100054.94;5009570;28;20043;-70
2022/04/21 01:10:36;;;;;;;4.88;2.90;;;;;;;8.32;nan;100053.59;5028228;28;20037;-71
2022/04/21 01:13:06;;;;;;;5.80;3.83;;;;;;;8.29;nan;100059.97;5028626;28;20084;-71
2022/04/21 01:15:33;;;;;;;4.85;3.40;;;;;;;8.25;nan;100059.47;5028681;28;20578;-71
2022/04/21 01:17:58;;;;;;;3.97;3.00;;;;;;;8.22;nan;100051.88;5030613;28;20041;-71
2022/04/21 01:20:25;;;;;;;4.97;3.70;;;;;;;8.22;nan;100043.97;5029931;28;20040;-71
2022/04/21 01:22:52;;;;;;;5.60;3.20;;;;;;;8.18;nan;100045.22;5025622;28;20041;-71
2022/04/21 01:25:19;;;;;;;4.78;3.20;;;;;;;8.16;nan;100052.44;5021363;28;20521;-70
2022/04/21 01:27:46;;;;;;;5.18;3.80;;;;;;;8.08;nan;100047.09;5025950;28;20041;-71
2022/04/21 01:30:12;;;;;;;5.13;3.85;;;;;;;8.06;nan;100034.06;5008436;28;20286;-71
2022/04/21 01:32:42;;;;;;;4.63;3.13;;;;;;;8.02;nan;100037.13;5008683;28;20085;-72
2022/04/21 01:35:08;;;;;;;3.78;2.90;;;;;;;7.94;nan;100037.88;5011360;28;20274;-71
2022/04/21 01:43:05;;;;;;;4.75;2.97;;;;;;;7.60;nan;100041.09;5008816;28;20103;-71
2022/04/21 01:45:30;;;;;;;5.05;3.53;;;;;;;7.49;nan;100043.06;5007434;28;20034;-71
2022/04/21 01:47:56;;;;;;;4.30;3.50;;;;;;;7.41;nan;100055.13;5019701;28;20034;-70
2022/04/21 01:50:23;;;;;;;4.85;3.50;;;;;;;7.34;nan;100053.19;4994660;28;20042;-71
2022/04/21 01:52:48;;;;;;;5.72;4.18;;;;;;;7.23;nan;100055.03;5008534;28;20034;-71
2022/04/21 01:55:14;;;;;;;5.20;3.83;;;;;;;7.19;nan;100052.81;5010887;28;20040;-71
2022/04/21 01:57:39;;;;;;;4.57;3.10;;;;;;;7.14;nan;100052.41;5007930;28;20073;-71
2022/04/21 02:00:05;;;;;;;4.40;3.25;;;;;;;7.11;nan;100043.03;5008503;28;20062;-71
2022/04/21 02:02:32;;;;;;;5.32;3.05;;;;;;;7.12;nan;100047.28;5010982;28;20411;-71
2022/04/21 02:04:57;;;;;;;8.20;4.82;;;;;;;7.19;nan;100048.38;5008891;28;20515;-72
2022/04/21 02:07:24;;;;;;;9.07;5.72;;;;;;;7.33;nan;100047.13;5007085;28;20042;-71
2022/04/21 02:09:49;;;;;;;12.82;6.50;;;;;;;7.45;nan;100042.50;5009126;28;20034;-72
2022/04/21 02:12:15;;;;;;;10.75;5.32;;;;;;;7.39;nan;100035.22;5008288;28;20066;-71
2022/04/21 02:14:40;;;;;;;8.02;4.25;;;;;;;7.28;nan;100032.75;5006672;28;20053;-72
2022/04/21 02:17:06;;;;;;;9.07;4.45;;;;;;;7.19;nan;100040.50;5007469;28;20049;-72
2022/04/21 02:19:32;;;;;;;15.77;7.05;;;;;;;7.08;nan;100031.94;5015877;28;20023;-72
2022/04/21 02:21:58;;;;;;;9.48;4.80;;;;;;;7.05;nan;100037.50;5009470;28;20514;-72
2022/04/21 02:24:23;;;;;;;11.10;5.30;;;;;;;6.98;nan;100038.06;5005995;28;20060;-71
2022/04/21 02:26:48;;;;;;;8.13;5.13;;;;;;;6.97;nan;100036.41;5007677;28;20046;-72
2022/04/21 02:29:14;;;;;;;7.28;4.47;;;;;;;7.03;nan;100040.25;5009441;28;20451;-72
2022/04/21 02:31:39;;;;;;;5.68;4.05;;;;;;;7.07;nan;100038.19;4988693;28;20050;-70
2022/04/21 02:34:04;;;;;;;4.75;3.47;;;;;;;7.02;nan;100031.53;5007064;28;20018;-70
2022/04/21 02:36:30;;;;;;;7.00;4.00;;;;;;;6.93;nan;100037.63;5006750;28;20034;-70
2022/04/21 02:38:55;;;;;;;5.32;3.50;;;;;;;6.88;nan;100031.97;5009345;28;20137;-69
2022/04/21 02:41:20;;;;;;;5.38;4.32;;;;;;;6.83;nan;100026.31;5006774;28;20125;-71
2022/04/21 02:43:45;;;;;;;5.25;3.55;;;;;;;6.82;nan;100022.03;5006964;28;20309;-71
2022/04/21 02:46:12;;;;;;;5.10;3.30;;;;;;;6.82;nan;100016.78;5015804;28;20509;-71
2022/04/21 02:48:38;;;;;;;4.95;3.53;;;;;;;6.85;nan;100028.81;5012959;28;20045;-70
2022/04/21 02:51:03;;;;;;;5.72;4.03;;;;;;;6.86;nan;100028.66;5016315;28;20038;-72
2022/04/21 02:59:00;;;;;;;5.45;3.53;;;;;;;6.80;nan;100016.09;5006538;28;20466;-72
2022/04/21 03:01:26;;;;;;;4.32;3.05;;;;;;;6.72;nan;100005.44;5009810;28;20038;-72
2022/04/21 03:03:51;;;;;;;3.78;3.28;;;;;;;6.66;nan;100006.00;5006653;28;20034;-71
2022/04/21 03:06:16;;;;;;;3.95;3.20;;;;;;;6.55;nan;100002.56;5008494;28;20065;-70
2022/04/21 03:08:41;;;;;;;4.30;3.17;;;;;;;6.48;nan;100003.22;5008432;28;20042;-69
2022/04/21 03:11:07;;;;;;;6.80;3.72;;;;;;;6.37;nan;100002.41;5010403;28;20042;-70
2022/04/21 03:13:32;;;;;;;5.30;4.30;;;;;;;6.32;nan;100001.16;5007165;28;20092;-70
2022/04/21 03:15:57;;;;;;;5.28;4.43;;;;;;;6.32;nan;99999.38;5009277;28;20030;-69
2022/04/21 03:18:23;;;;;;;5.53;4.60;;;;;;;6.35;nan;100001.72;5011959;28;20065;-70
2022/04/21 03:26:17;;;;;;;6.70;4.57;;;;;;;6.40;nan;99998.69;5005775;28;20100;-69
2022/04/21 03:28:43;;;;;;;5.63;4.63;;;;;;;6.36;nan;100005.16;5008955;28;20030;-70
2022/04/21 03:31:09;;;;;;;6.15;5.00;;;;;;;6.33;nan;100005.44;5006324;28;20034;-71
2022/04/21 03:33:34;;;;;;;6.57;5.05;;;;;;;6.30;nan;100016.22;5006741;28;20421;-70
2022/04/21 03:35:59;;;;;;;7.53;5.03;;;;;;;6.30;nan;100022.31;5006903;28;20038;-69
2022/04/21 03:38:25;;;;;;;7.55;4.47;;;;;;;6.30;nan;100024.09;5006460;28;20057;-69
2022/04/21 03:40:50;;;;;;;5.68;4.20;;;;;;;6.31;nan;100023.94;5008083;28;20026;-70
2022/04/21 03:43:15;;;;;;;6.35;4.13;;;;;;;6.29;nan;100027.69;4989401;28;20399;-69
2022/04/21 03:45:41;;;;;;;5.03;3.75;;;;;;;6.28;nan;100023.41;4990245;28;20053;-70
2022/04/21 03:48:06;;;;;;;4.47;3.20;;;;;;;6.22;nan;100029.19;5011109;28;20372;-70
2022/04/21 03:50:33;;;;;;;3.33;2.78;;;;;;;6.13;nan;100023.81;5014447;28;20080;-70
2022/04/21 03:52:59;;;;;;;5.00;3.50;;;;;;;6.10;nan;100026.72;5008329;28;20376;-70
2022/04/21 03:55:25;;;;;;;5.05;4.22;;;;;;;6.04;nan;100023.78;5006479;28;20270;-70
2022/04/21 03:57:50;;;;;;;5.72;4.63;;;;;;;5.94;nan;100026.38;5009400;28;20065;-69
2022/04/21 04:00:15;;;;;;;4.45;3.63;;;;;;;5.89;nan;100029.38;5002067;28;20038;-70
2022/04/21 04:02:41;;;;;;;4.75;3.80;;;;;;;5.80;nan;100027.56;5008732;28;20037;-69
2022/04/21 04:05:07;;;;;;;6.22;4.85;;;;;;;5.72;nan;100022.13;5005479;28;20034;-70
2022/04/21 04:13:00;;;;;;;7.30;4.72;;;;;;;5.55;nan;100010.47;5010993;28;20040;-71
2022/04/21 04:15:25;;;;;;;4.88;3.97;;;;;;;5.52;nan;100016.81;5014041;28;20033;-72
2022/04/21 04:17:50;;;;;;;7.25;5.30;;;;;;;5.45;nan;100020.09;5010080;28;20402;-72
2022/04/21 04:20:16;;;;;;;7.28;5.38;;;;;;;5.44;nan;100016.66;5016813;28;20107;-72
2022/04/21 04:22:42;;;;;;;6.28;5.10;;;;;;;5.39;nan;100018.84;5007334;28;20049;-73
2022/04/21 04:25:11;;;;;;;7.30;4.97;;;;;;;5.38;nan;100017.16;5011424;28;20047;-72
2022/04/21 04:27:37;;;;;;;7.57;5.45;;;;;;;5.40;nan;100014.41;5011704;28;20490;-72
2022/04/21 04:30:04;;;;;;;6.10;4.93;;;;;;;5.45;nan;100018.28;5011913;28;20044;-73
2022/04/21 04:32:30;;;;;;;6.07;4.60;;;;;;;5.52;nan;100018.59;5006058;28;20124;-72
2022/04/21 04:34:55;;;;;;;6.93;5.10;;;;;;;5.58;nan;100018.09;5009773;28;20573;-73
2022/04/21 04:37:20;;;;;;;5.75;4.82;;;;;;;5.63;nan;100010.66;5010296;28;20029;-73
2022/04/21 04:39:46;;;;;;;6.90;5.50;;;;;;;5.67;nan;100011.22;5008655;28;20077;-72
2022/04/21 04:42:17;;;;;;;6.35;4.63;;;;;;;5.67;nan;100004.19;5012606;28;20406;-73
2022/04/21 04:44:43;;;;;;;6.32;5.05;;;;;;;5.70;nan;100006.53;5010014;28;20430;-72
2022/04/21 04:47:08;;;;;;;7.05;4.85;;;;;;;5.70;nan;100009.16;5011881;28;20109;-72
2022/04/21 04:49:34;;;;;;;6.80;5.65;;;;;;;5.75;nan;100009.59;5017685;28;20073;-70
2022/04/21 04:51:59;;;;;;;8.23;6.10;;;;;;;5.83;nan;100015.97;5017001;28;20410;-73
2022/04/21 04:54:25;;;;;;;7.53;5.88;;;;;;;5.93;nan;100016.81;5010483;28;20049;-73
2022/04/21 04:56:51;;;;;;;7.05;6.00;;;;;;;5.98;nan;100014.63;5009516;28;20041;-72
2022/04/21 04:59:16;;;;;;;7.88;5.60;;;;;;;6.01;nan;100019.63;5013153;28;20520;-73
2022/04/21 05:01:45;;;;;;;8.70;6.30;;;;;;;6.03;nan;100022.09;5011452;28;20070;-73
2022/04/21 05:04:11;;;;;;;7.78;5.80;;;;;;;6.03;nan;100012.47;5012693;28;20554;-73
2022/04/21 05:06:42;;;;;;;10.65;5.80;;;;;;;6.06;nan;100017.44;5009303;28;20087;-72
2022/04/21 05:09:09;;;;;;;9.57;6.25;;;;;;;6.09;nan;100009.28;4990396;28;20490;-73
2022/04/21 05:11:34;;;;;;;7.63;6.35;;;;;;;6.15;nan;100008.75;5008250;28;20042;-72
2022/04/21 05:14:01;;;;;;;9.48;6.90;;;;;;;6.29;nan;100007.53;5008762;28;20038;-72
2022/04/21 05:16:27;;;;;;;11.93;7.18;;;;;;;6.44;nan;100007.13;5008760;28;20095;-72
2022/04/21 05:18:53;;;;;;;9.68;7.57;;;;;;;6.58;nan;100004.09;5009127;28;20041;-72
2022/04/21 05:21:19;;;;;;;9.77;7.93;;;;;;;6.70;nan;100004.78;5016268;28;20038;-73
2022/04/21 05:23:47;;;;;;;9.02;7.07;;;;;;;6.85;nan;100003.34;4994282;28;20054;-72
2022/04/21 05:26:13;;;;;;;9.80;7.57;;;;;;;6.93;nan;100005.28;5009100;28;20057;-73
2022/04/21 05:28:39;;;;;;;10.05;7.65;;;;;;;6.97;nan;100004.03;5010553;28;20034;-72
2022/04/21 05:31:04;;;;;;;9.10;6.88;;;;;;;7.12;nan;100007.03;5011118;28;20050;-73
2022/04/21 05:33:31;;;;;;;9.18;7.10;;;;;;;7.21;nan;99996.50;5009631;28;20022;-73
2022/04/21 05:35:58;;;;;;;9.10;7.32;;;;;;;7.30;nan;100004.50;5008376;28;20034;-73
2022/04/21 05:38:24;;;;;;;9.45;6.28;;;;;;;7.41;nan;100005.16;5007415;28;20042;-73
2022/04/21 05:40:51;;;;;;;9.63;6.78;;;;;;;7.47;nan;100009.00;5013452;28;20033;-72
2022/04/21 05:43:18;;;;;;;7.40;6.40;;;;;;;7.56;nan;100002.06;5008264;28;20034;-73
2022/04/21 05:45:48;;;;;;;8.27;6.68;;;;;;;7.79;nan;100002.47;5009097;28;20319;-73
2022/04/21 05:48:14;;;;;;;8.88;7.05;;;;;;;8.09;nan;99999.53;5010857;28;20423;-74
2022/04/21 05:50:44;;;;;;;9.48;7.25;;;;;;;8.36;nan;99999.63;5020658;28;20030;-73
2022/04/21 05:53:14;;;;;;;8.25;6.60;;;;;;;8.61;nan;99998.91;5016398;28;20184;-73
2022/04/21 05:55:39;;;;;;;9.05;6.97;;;;;;;8.98;nan;100002.31;4997207;28;20493;-73
2022/04/21 05:58:05;;;;;;;15.55;9.43;;;;;;;9.19;nan;100000.13;5008175;28;20100;-73
2022/04/21 06:00:30;;;;;;;14.68;8.85;;;;;;;9.27;nan;99994.91;5008397;28;20033;-74
2022/04/21 06:02:55;;;;;;;11.00;7.30;;;;;;;9.49;nan;99995.38;5002802;28;20038;-74
2022/04/21 06:05:21;;;;;;;8.00;5.72;;;;;;;9.83;nan;99989.22;5004054;28;20402;-73
2022/04/21 06:07:47;;;;;;;6.90;5.90;;;;;;;10.11;nan;99987.16;5007394;28;20045;-73
2022/04/21 06:10:12;;;;;;;9.52;6.10;;;;;;;10.41;nan;99983.09;5008774;28;20038;-73
2022/04/21 06:12:38;;;;;;;7.53;5.80;;;;;;;10.68;nan;99986.41;5010318;28;20120;-74
2022/04/21 06:15:03;;;;;;;6.05;5.07;;;;;;;11.01;nan;99981.91;5005195;28;20245;-73
2022/04/21 06:17:28;;;;;;;6.70;5.90;;;;;;;11.21;nan;99990.31;5011287;28;20260;-71
2022/04/21 06:19:55;;;;;;;7.93;5.65;;;;;;;11.43;nan;99992.22;5017797;28;20042;-71
2022/04/21 06:22:20;;;;;;;8.52;5.88;;;;;;;11.68;nan;99990.31;4996141;28;20118;-74
2022/04/21 06:24:45;;;;;;;9.27;6.40;;;;;;;11.80;nan;99989.97;5013666;28;20128;-72
2022/04/21 06:27:11;;;;;;;19.58;9.20;;;;;;;11.85;nan;99987.59;5008544;28;20482;-73
2022/04/21 06:29:36;;;;;;;10.67;6.53;;;;;;;12.18;nan;99993.59;4988883;28;20478;-73
2022/04/21 06:32:02;;;;;;;17.67;9.38;;;;;;;12.28;nan;99998.66;5006932;28;20124;-74
2022/04/21 06:34:27;;;;;;;11.10;7.13;;;;;;;12.51;nan;99991.53;5002633;28;20042;-75
2022/04/21 06:36:52;;;;;;;12.75;7.93;;;;;;;12.78;nan;99991.97;5007119;28;20030;-71
2022/04/21 06:39:18;;;;;;;10.25;6.90;;;;;;;13.05;nan;99993.22;5008472;28;20564;-71
2022/04/21 06:41:43;;;;;;;7.68;5.57;;;;;;;13.31;nan;99989.34;5008012;28;20499;-71
2022/04/21 06:49:36;;;;;;;7.18;5.07;;;;;;;13.92;nan;99981.94;5011063;28;20041;-71
2022/04/21 06:52:02;;;;;;;6.15;4.72;;;;;;;14.06;nan;99982.09;5013468;28;20029;-71
2022/04/21 06:54:27;;;;;;;6.25;5.40;;;;;;;14.11;nan;99977.88;5008327;28;20036;-71
2022/04/21 06:56:53;;;;;;;7.07;5.07;;;;;;;13.62;nan;99973.19;5006776;28;20393;-71
2022/04/21 06:59:18;;;;;;;6.47;4.60;;;;;;;13.94;nan;99974.63;5007099;28;20034;-71
2022/04/21 07:01:46;;;;;;;5.85;4.68;;;;;;;14.02;nan;99976.34;5007342;28;20048;-71
2022/04/21 07:04:12;;;;;;;7.82;5.55;;;;;;;14.07;nan;99971.28;5006782;28;20505;-71
2022/04/21 07:06:37;;;;;;;6.15;4.70;;;;;;;13.94;nan;99976.44;4986286;28;20065;-71
2022/04/21 07:09:03;;;;;;;6.68;5.07;;;;;;;13.69;nan;99974.09;5006331;28;20450;-71
2022/04/21 07:11:28;;;;;;;7.15;5.47;;;;;;;13.58;nan;99978.03;5007090;28;20034;-71
2022/04/21 07:13:54;;;;;;;5.88;5.13;;;;;;;13.40;nan;99979.44;5005960;28;20580;-71
2022/04/21 07:16:19;;;;;;;5.60;4.60;;;;;;;13.47;nan;99983.03;5006869;28;20033;-71
2022/04/21 07:18:44;;;;;;;7.22;5.15;;;;;;;13.34;nan;99976.50;5007037;28;20042;-71
2022/04/21 07:21:10;;;;;;;8.05;5.55;;;;;;;13.12;nan;99970.25;5010937;28;20033;-71
2022/04/21 07:23:36;;;;;;;7.15;5.30;;;;;;;13.31;nan;99981.38;5016424;28;20030;-71
2022/04/21 07:26:02;;;;;;;7.32;5.25;;;;;;;13.47;nan;99969.75;5006786;28;20042;-74
2022/04/21 07:28:27;;;;;;;7.63;5.32;;;;;;;13.38;nan;99976.97;5005519;28;20115;-74
2022/04/21 07:30:52;;;;;;;8.32;5.20;;;;;;;13.18;nan;99976.66;5006485;28;20423;-74
2022/04/21 07:33:18;;;;;;;6.43;5.22;;;;;;;13.01;nan;99967.22;5002464;28;20394;-73
2022/04/21 07:35:44;;;;;;;6.78;5.38;;;;;;;12.99;nan;99977.19;5009592;28;20494;-73
2022/04/21 07:38:10;;;;;;;6.60;5.35;;;;;;;12.68;nan;99970.16;5004078;28;20388;-73
2022/04/21 07:40:38;;;;;;;6.32;5.30;;;;;;;12.65;nan;99976.66;5006779;28;20041;-71
2022/04/21 07:43:08;;;;;;;8.30;5.75;;;;;;;12.40;nan;99980.50;5009859;28;20115;-73
2022/04/21 07:45:41;;;;;;;6.30;5.10;;;;;;;12.62;nan;99981.50;5010539;28;20041;-72
2022/04/21 07:48:06;;;;;;;7.55;4.97;;;;;;;12.57;nan;99981.22;4999877;28;20042;-72
2022/04/21 07:50:32;;;;;;;7.20;4.75;;;;;;;12.57;nan;99971.41;5016066;28;20497;-71
2022/04/21 07:53:13;;;;;;;6.38;4.57;;;;;;;12.66;nan;99973.00;5023778;28;20390;-72
2022/04/21 07:55:39;;;;;;;7.95;5.75;;;;;;;12.61;nan;99969.22;5009516;28;20026;-72
2022/04/21 07:58:06;;;;;;;6.10;4.95;;;;;;;12.61;nan;99959.47;5011102;28;20045;-73
2022/04/21 08:00:36;;;;;;;8.10;5.40;;;;;;;12.61;nan;99966.56;5008555;28;20037;-72
2022/04/21 08:03:02;;;;;;;8.07;5.43;;;;;;;12.66;nan;99961.56;5029589;28;20036;-72
2022/04/21 08:05:28;;;;;;;6.13;5.53;;;;;;;12.70;nan;99957.53;5023270;28;20509;-72
2022/04/21 08:07:53;;;;;;;6.90;5.45;;;;;;;12.60;nan;99975.53;5028890;28;20076;-72
2022/04/21 08:10:23;;;;;;;6.50;5.10;;;;;;;12.72;nan;99958.19;5011514;28;20029;-72
2022/04/21 08:12:51;;;;;;;8.23;5.60;;;;;;;12.94;nan;99964.44;5028696;28;20060;-72
2022/04/21 08:15:28;;;;;;;7.05;4.93;;;;;;;13.23;nan;99962.81;5028279;28;20026;-71
2022/04/21 08:17:56;;;;;;;5.75;4.55;;;;;;;13.25;nan;99972.28;5029163;28;20460;-72
2022/04/21 08:20:23;;;;;;;5.35;3.97;;;;;;;13.49;nan;99968.56;5029576;28;20051;-71
2022/04/21 08:22:48;;;;;;;6.03;4.70;;;;;;;13.66;nan;99968.31;5021185;28;20042;-71
2022/04/21 08:33:27;;;;;;;6.55;4.40;;;;;;;14.64;nan;99966.94;5029977;28;20426;-72
2022/04/21 08:35:58;;;;;;;6.90;4.35;;;;;;;15.29;nan;99970.25;5030481;28;20041;-73
2022/04/21 08:38:27;;;;;;;5.93;3.87;;;;;;;15.95;nan;99972.44;5031570;28;20437;-73
2022/04/21 08:40:54;;;;;;;4.93;3.70;;;;;;;16.80;nan;99971.94;5031273;28;20106;-73
2022/04/21 08:43:21;;;;;;;6.80;3.95;;;;;;;18.17;nan;99973.59;5018269;28;20064;-73
2022/04/21 08:45:48;;;;;;;5.00;3.15;;;;;;;19.46;nan;99970.47;5030214;28;20055;-73
2022/04/21 08:48:16;;;;;;;3.90;3.00;;;;;;;20.23;nan;99964.56;5011956;28;20048;-73
2022/04/21 08:50:45;;;;;;;4.57;2.65;;;;;;;20.94;nan;99968.19;5031168;28;20112;-73
2022/04/21 08:53:23;;;;;;;3.08;2.10;;;;;;;21.53;nan;99960.09;5028724;28;20675;-73
2022/04/21 08:55:50;;;;;;;3.30;2.30;;;;;;;22.03;nan;99972.91;5010324;28;20069;-73
2022/04/21 08:58:15;;;;;;;3.38;1.98;;;;;;;22.48;nan;99954.09;5029016;28;20434;-73
2022/04/21 09:00:44;;;;;;;3.17;2.40;;;;;;;22.50;nan;99961.09;5031413;28;20408;-73
2022/04/21 09:03:12;;;;;;;3.40;2.30;;;;;;;22.82;nan;99955.94;5004376;28;20107;-74
2022/04/21 09:05:38;;;;;;;3.70;2.70;;;;;;;23.54;nan;99957.78;5005727;28;20037;-73
2022/04/21 09:08:04;;;;;;;2.78;1.63;;;;;;;24.05;nan;99955.69;5011993;28;20034;-74
2022/04/21 09:10:34;;;;;;;4.72;2.35;;;;;;;24.97;nan;99955.63;5028939;28;20509;-73
2022/04/21 09:13:02;;;;;;;3.72;2.30;;;;;;;25.07;nan;99947.56;5028352;28;20033;-74
2022/04/21 09:15:33;;;;;;;3.90;2.75;;;;;;;24.62;nan;99948.88;5031544;28;20371;-73
2022/04/21 09:18:00;;;;;;;4.45;3.42;;;;;;;23.37;nan;99954.31;5015437;28;20041;-73
2022/04/21 09:20:33;;;;;;;3.92;2.80;;;;;;;22.62;nan;99943.81;5027039;28;20402;-74
2022/04/21 09:23:00;;;;;;;6.07;3.47;;;;;;;21.65;nan;99942.06;5030083;28;20362;-73
2022/04/21 09:25:31;;;;;;;3.55;2.90;;;;;;;21.07;nan;99934.88;5027742;28;20038;-73
2022/04/21 09:27:58;;;;;;;4.22;3.30;;;;;;;20.44;nan;99941.72;5026925;28;20037;-73
2022/04/21 09:30:24;;;;;;;7.18;4.00;;;;;;;20.08;nan;99936.25;5029607;28;20087;-73
2022/04/21 09:32:54;;;;;;;4.32;3.53;;;;;;;19.85;nan;99936.19;5031184;28;20057;-72
2022/04/21 09:35:26;;;;;;;4.47;3.20;;;;;;;19.55;nan;99942.31;5030986;28;20464;-72
2022/04/21 09:37:53;;;;;;;3.97;3.35;;;;;;;19.08;nan;99933.97;5030555;28;20030;-73
2022/04/21 09:40:21;;;;;;;4.32;3.08;;;;;;;19.07;nan;99930.47;5030141;28;20039;-72
2022/04/21 09:43:00;;;;;;;4.10;3.25;;;;;;;18.95;nan;99936.78;5030981;28;20057;-73
2022/04/21 09:48:23;;;;;;;4.43;2.95;;;;;;;19.03;nan;99931.94;5023583;28;20153;-73
2022/04/21 09:50:53;;;;;;;5.00;2.95;;;;;;;18.72;nan;99927.47;5027960;28;20394;-72
2022/04/21 09:53:23;;;;;;;4.40;3.08;;;;;;;18.71;nan;99925.84;5027720;28;20107;-72
2022/04/21 09:55:49;;;;;;;3.10;2.50;;;;;;;18.98;nan;99918.41;5023480;28;20414;-71
2022/04/21 09:58:15;;;;;;;5.78;3.50;;;;;;;19.48;nan;99920.13;5029049;28;20034;-72
2022/04/21 10:00:44;;;;;;;4.10;3.13;;;;;;;19.54;nan;99921.88;5032470;28;20051;-72
2022/04/21 10:03:10;;;;;;;5.90;3.55;;;;;;;18.96;nan;99914.31;5013130;28;20038;-72
2022/04/21 10:05:41;;;;;;;4.55;2.80;;;;;;;18.40;nan;99916.84;5029616;28;20041;-72
2022/04/21 10:08:09;;;;;;;4.88;3.25;;;;;;;18.50;nan;99913.69;5027923;28;20033;-72
2022/04/21 10:10:36;;;;;;;;;;;;;;;19.47;nan;99905.91;5028544;28;20434;-73
2022/04/21 10:13:03;;;;;;;3.97;2.80;;;;;;;19.80;nan;99903.84;5028015;28;20012;-72
2022/04/21 10:15:29;;;;;;;4.88;3.10;;;;;;;19.24;nan;99903.91;5027957;28;20029;-72
2022/04/21 10:17:55;;;;;;;4.03;2.72;;;;;;;19.04;nan;99896.09;5028432;28;20556;-72
2022/04/21 10:20:25;;;;;;;3.45;2.20;;;;;;;19.26;nan;99898.31;5027200;28;20036;-73
2022/04/21 10:22:51;;;;;;;;;;;;;;;19.77;nan;99891.72;5029643;28;20033;-72
2022/04/21 10:25:18;;;;;;;4.45;2.75;;;;;;;19.82;nan;99883.78;5027748;28;19917;-72
2022/04/21 10:27:47;;;;;;;2.80;2.28;;;;;;;19.89;nan;99881.03;5026973;28;20510;-73
2022/04/21 10:30:26;;;;;;;3.95;3.00;;;;;;;19.19;nan;99870.78;5025006;28;20061;-72
2022/04/21 10:32:56;;;;;;;4.32;2.58;;;;;;;19.60;nan;99863.88;5025840;28;20021;-73
2022/04/21 10:35:28;;;;;;;4.55;2.97;;;;;;;20.69;nan;99869.00;5026295;28;20497;-73
2022/04/21 10:38:29;;;;;;;3.40;2.50;;;;;;;21.26;nan;99865.63;5027523;28;20097;-73
2022/04/21 10:41:00;;;;;;;3.70;2.80;;;;;;;22.29;nan;99866.50;4983700;28;20038;-72
2022/04/21 10:43:48;;;;;;;3.50;2.15;;;;;;;22.33;nan;99856.03;5019520;28;20057;-73
2022/04/21 10:46:22;;;;;;;3.22;2.47;;;;;;;21.35;nan;99862.34;5009339;28;20426;-73
2022/04/21 10:48:48;;;;;;;3.65;2.45;;;;;;;22.26;nan;99846.25;5028763;28;20044;-73
2022/04/21 10:57:31;;;;;;;2.88;2.00;;;;;;;26.48;nan;99833.63;5025874;28;20064;-73
2022/04/21 11:00:08;;;;;;;3.97;2.53;;;;;;;26.78;nan;99833.84;5027252;28;20061;-73
2022/04/21 11:02:41;;;;;;;2.85;1.85;;;;;;;26.89;nan;99822.69;5026583;28;20042;-73
2022/04/21 11:05:21;;;;;;;2.90;2.20;;;;;;;26.46;nan;99824.13;5008548;28;20037;-75
2022/04/21 11:07:55;;;;;;;2.63;1.80;;;;;;;27.41;nan;99820.56;5022391;28;20051;-73
2022/04/21 11:10:36;;;;;;;2.58;1.83;;;;;;;28.33;nan;99819.84;5024528;28;20029;-74
2022/04/21 11:13:01;;;;;;;2.40;1.73;;;;;;;29.16;nan;99809.69;5022100;28;20715;-73
2022/04/21 11:15:53;;;;;;;2.10;1.50;;;;;;;29.91;nan;99809.97;5024843;28;20510;-73
2022/04/21 11:18:21;;;;;;;3.72;1.80;;;;;;;29.86;nan;99808.13;5030267;28;20110;-73
2022/04/21 11:20:48;;;;;;;2.40;1.60;;;;;;;29.01;nan;99805.22;5031277;28;20037;-73
2022/04/21 11:23:25;;;;;;;2.53;2.00;;;;;;;28.65;nan;99802.16;5030819;28;20040;-73
2022/04/21 11:25:51;;;;;;;2.70;2.03;;;;;;;28.41;nan;99801.28;5012645;28;20128;-73
2022/04/21 11:28:24;;;;;;;3.60;2.03;;;;;;;28.94;nan;99798.53;5027472;28;20407;-73
2022/04/21 11:30:57;;;;;;;3.22;2.05;;;;;;;27.72;nan;99799.44;5014464;28;20049;-73
2022/04/21 11:33:22;;;;;;;3.90;1.83;;;;;;;28.06;nan;99795.09;5015167;28;20129;-74
2022/04/21 11:35:48;;;;;;;2.72;1.70;;;;;;;28.13;nan;99790.97;5015811;28;20124;-73
2022/04/21 11:38:13;;;;;;;3.70;2.17;;;;;;;27.58;nan;99786.75;5014771;28;20057;-73
2022/04/21 11:40:40;;;;;;;3.08;1.90;;;;;;;27.11;nan;99789.75;5015819;28;20038;-74
2022/04/21 11:43:19;;;;;;;3.38;2.08;;;;;;;26.79;nan;99784.75;5017928;28;20061;-74
2022/04/21 11:46:06;;;;;;;3.63;1.90;;;;;;;27.61;nan;99786.22;5016511;28;20042;-74
2022/04/21 11:48:34;;;;;;;2.58;1.60;;;;;;;26.84;nan;99787.44;5033222;28;20048;-74
2022/04/21 11:51:00;;;;;;;4.70;2.60;;;;;;;26.71;nan;99789.91;5032345;28;20038;-73
2022/04/21 11:53:28;;;;;;;2.65;1.73;;;;;;;25.13;nan;99800.44;5030721;28;20037;-73
2022/04/21 11:55:54;;;;;;;3.65;2.20;;;;;;;23.78;nan;99801.75;5030971;28;20044;-73
2022/04/21 11:58:37;;;;;;;3.45;2.35;;;;;;;23.39;nan;99787.63;5030290;28;20135;-73
2022/04/21 12:06:38;;;;;;;2.90;1.65;;;;;;;25.01;nan;99776.31;5014347;28;20052;-73
2022/04/21 12:09:12;;;;;;;3.65;2.40;;;;;;;24.80;nan;99772.72;5015544;28;20045;-73
2022/04/21 12:11:37;;;;;;;3.08;2.20;;;;;;;23.08;nan;99780.00;5051175;22;20064;-82
2022/04/21 12:14:03;;;;;;;5.22;2.75;;;;;;;22.80;nan;99778.28;5013166;28;20030;-81
2022/04/21 12:16:54;;;;;;;3.53;2.22;;;;;;;21.77;nan;99762.50;5015992;28;20056;-82
2022/04/21 12:19:39;;;;;;;5.47;2.50;;;;;;;21.69;nan;99756.72;5025143;28;20436;-84
2022/04/21 12:22:19;;;;;;;3.30;2.25;;;;;;;21.51;nan;99772.03;5010631;28;20041;-84
2022/04/21 12:24:45;;;;;;;2.55;1.88;;;;;;;20.98;nan;99760.53;5012777;28;20037;-84
2022/04/21 12:27:16;;;;;;;2.75;2.22;;;;;;;21.12;nan;99761.06;5012546;28;20049;-83
2022/04/21 12:29:53;;;;;;;2.65;1.90;;;;;;;21.10;nan;99747.06;5017549;28;20033;-84
2022/04/21 12:32:25;;;;;;;4.38;2.08;;;;;;;20.84;nan;99753.81;5013351;28;20076;-84
2022/04/21 12:34:50;;;;;;;3.25;2.50;;;;;;;20.35;nan;99753.28;5012078;28;20403;-83
2022/04/21 12:37:27;;;;;;;4.13;2.30;;;;;;;20.20;nan;99751.06;5016303;28;20038;-83
2022/04/21 12:39:54;;;;;;;3.85;1.88;;;;;;;20.39;nan;99750.94;5006886;28;20042;-83
2022/04/21 12:42:20;;;;;;;4.43;2.60;;;;;;;20.22;nan;99761.59;5009282;28;20038;-83
2022/04/21 12:44:46;;;;;;;4.03;2.53;;;;;;;20.37;nan;99751.16;5013440;28;20042;-83
2022/04/21 12:47:17;;;;;;;3.10;2.30;;;;;;;20.54;nan;99751.25;5025367;28;20048;-83